Time;durP1;ratioP1;P1;durP2;ratioP2;P2;SDS_P1;SDS_P2;PMS_P1;PMS_P2;Temp;Humidity;BMP_temperature;BMP_pressure;BME280_temperature;BME280_humidity;BME280_pressure;Samples;Min_cycle;Max_cycle;Signal;HPM_P1;HPM_P2
2022/12/03 00:01:44;;;;;;;38.83;18.23;;;3.60;99.90;;;;;;5025674;28;20033;-57
2022/12/03 00:04:10;;;;;;;39.72;17.30;;;3.60;99.90;;;;;;5023542;28;20045;-58
2022/12/03 00:06:36;;;;;;;41.03;18.95;;;3.70;99.90;;;;;;5025224;28;20423;-57
2022/12/03 00:09:02;;;;;;;39.33;17.08;;;3.70;99.90;;;;;;5024723;28;20056;-57
2022/12/03 00:11:28;;;;;;;35.20;17.02;;;3.70;99.90;;;;;;5024977;28;20041;-57
2022/12/03 00:13:53;;;;;;;34.20;17.52;;;3.80;99.90;;;;;;5025319;28;20672;-56
2022/12/03 00:16:19;;;;;;;32.47;17.30;;;3.80;99.90;;;;;;5025392;28;20112;-58
2022/12/03 00:18:45;;;;;;;38.83;17.20;;;3.90;99.90;;;;;;5024723;28;20348;-56
2022/12/03 00:21:10;;;;;;;33.03;16.48;;;3.80;99.90;;;;;;5025058;28;20100;-57
2022/12/03 00:23:36;;;;;;;35.67;16.98;;;3.80;99.90;;;;;;5026242;28;20068;-58
2022/12/03 00:26:01;;;;;;;29.55;14.50;;;3.80;99.90;;;;;;5026301;28;20450;-58
2022/12/03 00:28:27;;;;;;;30.73;15.15;;;3.90;99.90;;;;;;5024935;28;20045;-58
2022/12/03 00:30:53;;;;;;;32.20;16.23;;;3.90;99.90;;;;;;5025415;28;20052;-60
2022/12/03 00:33:19;;;;;;;29.48;15.73;;;3.90;99.90;;;;;;5025511;28;20330;-57
2022/12/03 00:35:45;;;;;;;29.67;15.63;;;4.00;99.90;;;;;;5025890;28;20420;-57
2022/12/03 00:38:11;;;;;;;30.55;15.80;;;3.90;99.90;;;;;;5025695;28;20033;-56
2022/12/03 00:40:36;;;;;;;28.83;15.05;;;3.90;99.90;;;;;;5025894;28;20044;-58
2022/12/03 00:43:02;;;;;;;32.83;16.40;;;3.90;99.90;;;;;;5025957;28;20061;-57
2022/12/03 00:45:27;;;;;;;28.45;15.55;;;3.90;99.90;;;;;;5024963;28;20698;-58
2022/12/03 00:47:53;;;;;;;29.63;16.10;;;3.90;99.90;;;;;;5023958;28;20417;-57
2022/12/03 00:50:18;;;;;;;30.42;16.67;;;4.00;99.90;;;;;;5025385;28;20199;-58
2022/12/03 00:52:44;;;;;;;29.35;15.35;;;3.90;99.90;;;;;;5025730;28;20620;-58
2022/12/03 00:55:10;;;;;;;31.27;16.23;;;3.90;99.90;;;;;;5025539;28;20064;-58
2022/12/03 00:57:35;;;;;;;28.50;15.52;;;3.80;99.90;;;;;;5024752;28;20033;-58
2022/12/03 01:00:02;;;;;;;31.38;16.17;;;3.80;99.90;;;;;;5024501;28;20432;-56
2022/12/03 01:02:27;;;;;;;34.55;17.80;;;3.80;99.90;;;;;;5024206;28;20045;-58
2022/12/03 01:04:53;;;;;;;30.40;16.67;;;3.80;99.90;;;;;;5023912;28;20046;-59
2022/12/03 01:07:18;;;;;;;34.42;16.15;;;3.80;99.90;;;;;;5025107;28;20049;-59
2022/12/03 01:09:44;;;;;;;30.60;16.38;;;3.80;99.90;;;;;;5023896;28;20091;-58
2022/12/03 01:12:10;;;;;;;30.63;17.08;;;3.80;99.90;;;;;;5025251;28;20041;-57
2022/12/03 01:14:36;;;;;;;29.48;15.32;;;3.80;99.90;;;;;;5024348;28;20053;-58
2022/12/03 01:17:02;;;;;;;28.73;16.00;;;3.80;99.90;;;;;;5023753;28;20401;-57
2022/12/03 01:19:27;;;;;;;32.72;17.25;;;3.80;99.90;;;;;;5023797;28;20045;-58
2022/12/03 01:21:54;;;;;;;34.70;17.38;;;3.80;99.90;;;;;;5024078;28;20432;-57
2022/12/03 01:24:20;;;;;;;28.33;15.98;;;3.80;99.90;;;;;;5024146;28;20143;-57
2022/12/03 01:26:46;;;;;;;30.42;16.13;;;3.70;99.90;;;;;;5024169;28;20392;-57
2022/12/03 01:29:12;;;;;;;29.35;15.60;;;3.70;99.90;;;;;;5024131;28;20042;-58
2022/12/03 01:34:22;;;;;;;31.42;17.02;;;3.60;99.90;;;;;;5023623;28;20037;-58
2022/12/03 01:36:47;;;;;;;33.17;17.48;;;3.50;99.90;;;;;;5023386;28;20137;-56
2022/12/03 01:39:13;;;;;;;32.88;16.00;;;3.50;99.90;;;;;;5023267;28;20053;-58
2022/12/03 01:41:39;;;;;;;31.20;16.65;;;3.40;99.90;;;;;;5024516;28;20052;-58
2022/12/03 01:44:19;;;;;;;30.85;16.58;;;3.40;99.90;;;;;;5022634;28;20045;-58
2022/12/03 01:46:46;;;;;;;32.10;16.58;;;3.50;99.90;;;;;;5024148;28;20049;-58
2022/12/03 01:49:20;;;;;;;33.45;16.75;;;3.50;99.90;;;;;;5024016;28;20103;-57
2022/12/03 01:51:47;;;;;;;36.25;18.48;;;3.50;99.90;;;;;;5024634;28;20056;-59
2022/12/03 01:54:17;;;;;;;34.60;17.98;;;3.50;99.90;;;;;;5023989;28;20056;-58
2022/12/03 01:56:43;;;;;;;32.60;16.92;;;3.50;99.90;;;;;;5024957;28;20080;-58
2022/12/03 01:59:13;;;;;;;32.85;17.80;;;3.50;99.90;;;;;;5023914;28;20397;-58
2022/12/03 02:01:39;;;;;;;32.92;16.80;;;3.50;99.90;;;;;;5006005;28;20610;-57
2022/12/03 02:04:04;;;;;;;34.20;18.02;;;3.50;99.90;;;;;;5023022;28;20111;-57
2022/12/03 02:06:30;;;;;;;32.53;17.27;;;3.50;99.90;;;;;;5024373;28;20077;-58
2022/12/03 02:08:58;;;;;;;34.67;18.35;;;3.50;99.90;;;;;;5024312;28;20135;-57
2022/12/03 02:11:26;;;;;;;34.20;18.20;;;3.50;99.90;;;;;;5024474;28;20072;-58
2022/12/03 02:13:55;;;;;;;33.55;17.92;;;3.50;99.90;;;;;;5022996;28;20069;-59
2022/12/03 02:16:21;;;;;;;33.25;18.42;;;3.50;99.90;;;;;;5021977;28;20117;-58
2022/12/03 02:18:47;;;;;;;32.17;16.95;;;3.50;99.90;;;;;;5023619;28;20034;-57
2022/12/03 02:21:35;;;;;;;34.28;17.73;;;3.50;99.90;;;;;;5023027;28;20400;-57
2022/12/03 02:24:20;;;;;;;30.15;16.80;;;3.50;99.90;;;;;;5023600;28;20555;-56
2022/12/03 02:26:46;;;;;;;31.90;17.90;;;3.50;99.90;;;;;;5023792;28;20041;-57
2022/12/03 02:29:11;;;;;;;32.90;18.27;;;3.50;99.90;;;;;;5023720;28;20043;-58
2022/12/03 02:31:37;;;;;;;34.45;17.70;;;3.50;99.90;;;;;;5023175;28;20524;-56
2022/12/03 02:34:06;;;;;;;34.30;17.83;;;3.50;99.90;;;;;;5022853;28;20073;-59
2022/12/03 02:36:33;;;;;;;32.38;17.30;;;3.50;99.90;;;;;;5023496;28;20071;-57
2022/12/03 02:38:59;;;;;;;35.53;18.33;;;3.50;99.90;;;;;;5023225;28;20060;-58
2022/12/03 02:44:10;;;;;;;32.53;17.23;;;3.50;99.90;;;;;;5023197;28;20049;-58
2022/12/03 02:46:35;;;;;;;36.97;19.15;;;3.50;99.90;;;;;;5022745;28;20041;-57
2022/12/03 02:49:03;;;;;;;35.83;18.40;;;3.50;99.90;;;;;;5022863;28;20151;-57
2022/12/03 02:51:28;;;;;;;36.35;18.17;;;3.50;99.90;;;;;;5022932;28;20053;-56
2022/12/03 02:53:55;;;;;;;35.10;19.02;;;3.50;99.90;;;;;;5023243;28;20052;-57
2022/12/03 02:56:25;;;;;;;35.83;19.05;;;3.50;99.90;;;;;;5022906;28;20144;-58
2022/12/03 02:58:55;;;;;;;37.78;18.63;;;3.40;99.90;;;;;;5023490;28;20108;-58
2022/12/03 03:01:20;;;;;;;38.15;20.13;;;3.40;99.90;;;;;;5023499;28;20037;-58
2022/12/03 03:03:47;;;;;;;35.20;17.52;;;3.40;99.90;;;;;;5023221;28;20041;-57
2022/12/03 03:06:14;;;;;;;36.45;18.10;;;3.40;99.90;;;;;;5023215;28;20046;-56
2022/12/03 03:08:41;;;;;;;38.33;18.92;;;3.40;99.90;;;;;;5022141;28;20753;-58
2022/12/03 03:11:07;;;;;;;32.75;18.23;;;3.30;99.90;;;;;;5024538;28;20055;-57
2022/12/03 03:13:34;;;;;;;36.65;19.15;;;3.30;99.90;;;;;;5025324;28;20732;-56
2022/12/03 03:16:01;;;;;;;34.25;19.33;;;3.40;99.90;;;;;;5024824;28;20033;-58
2022/12/03 03:18:27;;;;;;;33.33;17.17;;;3.40;99.90;;;;;;5025492;28;20037;-57
2022/12/03 03:20:52;;;;;;;31.55;17.00;;;3.40;99.90;;;;;;5026136;28;20554;-57
2022/12/03 03:23:20;;;;;;;33.17;18.30;;;3.40;99.90;;;;;;5025634;28;20037;-56
2022/12/03 03:25:53;;;;;;;31.17;17.35;;;3.40;99.90;;;;;;5019030;28;20104;-57
2022/12/03 03:28:18;;;;;;;33.88;17.20;;;3.40;99.90;;;;;;5020533;28;20615;-57
2022/12/03 03:30:45;;;;;;;31.30;16.90;;;3.40;99.90;;;;;;5007572;28;20069;-59
2022/12/03 03:33:12;;;;;;;29.98;16.85;;;3.40;99.90;;;;;;5024093;28;20077;-57
2022/12/03 03:35:38;;;;;;;33.63;18.13;;;3.40;99.90;;;;;;5025720;28;20490;-56
2022/12/03 03:38:05;;;;;;;31.25;17.67;;;3.40;99.90;;;;;;5025695;28;20041;-57
2022/12/03 03:40:31;;;;;;;31.67;17.58;;;3.30;99.90;;;;;;5026061;28;20103;-58
2022/12/03 03:42:57;;;;;;;34.83;19.30;;;3.30;99.90;;;;;;5026489;28;20361;-58
2022/12/03 03:45:22;;;;;;;35.92;18.83;;;3.30;99.90;;;;;;5026105;28;20045;-58
2022/12/03 03:47:48;;;;;;;36.22;17.98;;;3.30;99.90;;;;;;5025082;28;20432;-58
2022/12/03 03:50:14;;;;;;;33.47;17.17;;;3.30;99.90;;;;;;5024886;28;20107;-57
2022/12/03 03:52:41;;;;;;;32.90;17.52;;;3.30;99.90;;;;;;5026988;28;20129;-58
2022/12/03 03:55:10;;;;;;;30.70;16.92;;;3.30;99.90;;;;;;5019132;28;20061;-58
2022/12/03 03:57:36;;;;;;;34.78;19.05;;;3.30;99.90;;;;;;5020839;28;20050;-56
2022/12/03 04:00:05;;;;;;;33.40;17.25;;;3.30;99.90;;;;;;5026159;28;20033;-58
2022/12/03 04:02:31;;;;;;;31.60;18.27;;;3.30;99.90;;;;;;5025699;28;20455;-58
2022/12/03 04:04:57;;;;;;;34.60;17.58;;;3.30;99.90;;;;;;5025010;28;20460;-57
2022/12/03 04:07:23;;;;;;;35.15;18.23;;;3.30;99.90;;;;;;5026528;28;20049;-58
2022/12/03 04:09:48;;;;;;;33.60;19.02;;;3.20;99.90;;;;;;5025281;28;20124;-57
2022/12/03 04:14:58;;;;;;;34.38;18.42;;;3.20;99.90;;;;;;5025196;28;20049;-58
2022/12/03 04:17:24;;;;;;;34.25;18.48;;;3.20;99.90;;;;;;5040033;28;20751;-58
2022/12/03 04:19:49;;;;;;;31.33;17.10;;;3.20;99.90;;;;;;5024673;28;20103;-58
2022/12/03 04:30:27;;;;;;;37.40;18.00;;;3.10;99.90;;;;;;5023754;28;20084;-57
2022/12/03 04:35:43;;;;;;;36.75;18.30;;;3.10;99.90;;;;;;5025981;28;20049;-58
2022/12/03 04:38:14;;;;;;;36.92;19.75;;;3.10;99.90;;;;;;5026063;28;20044;-58
2022/12/03 04:43:25;;;;;;;38.80;18.73;;;3.10;99.90;;;;;;5025270;28;20097;-57
2022/12/03 04:45:51;;;;;;;34.95;19.02;;;3.10;99.90;;;;;;5024851;28;20056;-57
2022/12/03 04:48:16;;;;;;;35.45;19.02;;;3.10;99.90;;;;;;5022513;28;20053;-57
2022/12/03 04:50:42;;;;;;;35.22;18.45;;;3.10;99.90;;;;;;5024543;28;20140;-56
2022/12/03 04:53:08;;;;;;;34.33;18.90;;;3.10;99.90;;;;;;5024910;28;20523;-58
2022/12/03 04:55:33;;;;;;;36.45;18.75;;;3.10;99.90;;;;;;5025017;28;20049;-57
2022/12/03 04:57:59;;;;;;;35.40;17.88;;;3.10;99.90;;;;;;5025272;28;20036;-57
2022/12/03 05:00:24;;;;;;;34.45;18.55;;;3.10;99.90;;;;;;5024719;28;20645;-56
2022/12/03 05:02:50;;;;;;;32.70;17.77;;;3.00;99.90;;;;;;5024628;28;20075;-58
2022/12/03 05:05:16;;;;;;;36.83;20.58;;;3.00;99.90;;;;;;5025531;28;20072;-57
2022/12/03 05:07:42;;;;;;;39.17;20.02;;;3.10;99.90;;;;;;5025567;28;20048;-57
2022/12/03 05:10:08;;;;;;;36.35;18.60;;;3.10;99.90;;;;;;5024991;28;20041;-57
2022/12/03 05:12:34;;;;;;;35.83;19.23;;;3.00;99.90;;;;;;5024707;28;20152;-58
2022/12/03 05:15:00;;;;;;;34.85;19.15;;;3.00;99.90;;;;;;5024324;28;20135;-58
2022/12/03 05:17:25;;;;;;;38.65;20.08;;;3.00;99.90;;;;;;5023578;28;20683;-57
2022/12/03 05:22:35;;;;;;;39.17;19.98;;;2.90;99.90;;;;;;5024501;28;20041;-57
2022/12/03 05:25:01;;;;;;;39.83;20.17;;;2.90;99.90;;;;;;5024206;28;20535;-57
2022/12/03 05:27:27;;;;;;;37.53;19.67;;;2.90;99.90;;;;;;5025195;28;20069;-56
2022/12/03 05:29:53;;;;;;;38.58;19.70;;;2.80;99.90;;;;;;5024619;28;20614;-56
2022/12/03 05:32:19;;;;;;;36.10;18.60;;;2.80;99.90;;;;;;5024321;28;20049;-59
2022/12/03 05:34:44;;;;;;;38.03;20.33;;;2.80;99.90;;;;;;5023796;28;20041;-57
2022/12/03 05:37:10;;;;;;;35.67;18.80;;;2.80;99.90;;;;;;5024663;28;20255;-58
2022/12/03 05:39:35;;;;;;;38.17;19.10;;;2.80;99.90;;;;;;5024958;28;20040;-54
2022/12/03 05:44:45;;;;;;;36.60;18.98;;;2.80;99.90;;;;;;5024198;28;20128;-56
2022/12/03 05:47:11;;;;;;;38.05;19.35;;;2.70;99.90;;;;;;5024119;28;20136;-57
2022/12/03 05:49:36;;;;;;;39.58;19.70;;;2.70;99.90;;;;;;5023997;28;20053;-57
2022/12/03 05:52:02;;;;;;;35.85;19.20;;;2.70;99.90;;;;;;5024136;28;20057;-57
2022/12/03 05:54:27;;;;;;;39.38;19.92;;;2.70;99.90;;;;;;5023484;28;20503;-57
2022/12/03 05:56:53;;;;;;;41.25;19.35;;;2.70;99.90;;;;;;5024136;28;20103;-58
2022/12/03 05:59:19;;;;;;;39.63;20.23;;;2.70;99.90;;;;;;5023698;28;20639;-57
2022/12/03 06:01:44;;;;;;;50.42;20.75;;;2.70;99.90;;;;;;5023931;28;20049;-57
2022/12/03 06:04:10;;;;;;;43.97;19.15;;;2.70;99.90;;;;;;5022997;28;20116;-58
2022/12/03 06:06:35;;;;;;;36.85;17.60;;;2.70;99.90;;;;;;5024238;28;20077;-57
2022/12/03 06:09:01;;;;;;;41.15;19.70;;;2.70;99.90;;;;;;5023954;28;20048;-56
2022/12/03 06:11:28;;;;;;;36.92;17.55;;;2.60;99.90;;;;;;5024420;28;20057;-57
2022/12/03 06:13:54;;;;;;;36.55;17.92;;;2.60;99.90;;;;;;5023726;28;20052;-59
2022/12/03 06:16:20;;;;;;;35.45;17.63;;;2.60;99.90;;;;;;5023571;28;20488;-58
2022/12/03 06:18:45;;;;;;;37.05;18.38;;;2.60;99.90;;;;;;5023382;28;20044;-56
2022/12/03 06:21:11;;;;;;;37.00;18.30;;;2.60;99.90;;;;;;5024006;28;20117;-56
2022/12/03 06:23:43;;;;;;;35.90;18.75;;;2.60;99.90;;;;;;5023943;28;20037;-59
2022/12/03 06:26:12;;;;;;;35.72;17.48;;;2.60;99.90;;;;;;5024282;28;20140;-57
2022/12/03 06:28:38;;;;;;;37.58;17.92;;;2.60;99.90;;;;;;5023107;28;20148;-57
2022/12/03 06:31:04;;;;;;;38.22;17.65;;;2.60;99.90;;;;;;5023089;28;20155;-57
2022/12/03 06:33:29;;;;;;;39.08;19.27;;;2.60;99.90;;;;;;5022677;28;20029;-57
2022/12/03 06:35:55;;;;;;;38.17;18.67;;;2.60;99.90;;;;;;5023041;28;20148;-57
2022/12/03 06:38:21;;;;;;;39.03;17.80;;;2.60;99.90;;;;;;5021906;28;20041;-57
2022/12/03 06:40:46;;;;;;;40.10;18.77;;;2.60;99.90;;;;;;5006408;28;20053;-57
2022/12/03 06:43:12;;;;;;;38.20;19.85;;;2.60;99.90;;;;;;5023583;28;20041;-57
2022/12/03 06:45:38;;;;;;;40.60;19.77;;;2.60;99.90;;;;;;5024007;28;20073;-55
2022/12/03 06:48:03;;;;;;;36.63;18.30;;;2.60;99.90;;;;;;5026982;28;20498;-58
2022/12/03 06:50:29;;;;;;;32.55;17.48;;;2.60;99.90;;;;;;5026083;28;20099;-57
2022/12/03 06:52:55;;;;;;;37.63;18.17;;;2.60;99.90;;;;;;5027684;28;20555;-57
2022/12/03 06:55:20;;;;;;;36.65;18.60;;;2.60;99.90;;;;;;5027981;28;20042;-56
2022/12/03 06:57:46;;;;;;;37.92;18.75;;;2.50;99.90;;;;;;5027503;28;20061;-56
2022/12/03 07:00:12;;;;;;;39.50;19.92;;;2.50;99.90;;;;;;5025579;28;20029;-58
2022/12/03 07:02:38;;;;;;;38.08;19.23;;;2.50;99.90;;;;;;5026521;28;20096;-57
2022/12/03 07:05:04;;;;;;;33.67;17.90;;;2.50;99.90;;;;;;5027076;28;20488;-57
2022/12/03 07:07:29;;;;;;;39.53;19.10;;;2.50;99.90;;;;;;5027747;28;20417;-55
2022/12/03 07:09:55;;;;;;;37.17;18.63;;;2.50;99.90;;;;;;5025705;28;20045;-57
2022/12/03 07:12:20;;;;;;;33.65;18.33;;;2.50;99.90;;;;;;5042899;28;20041;-58
2022/12/03 07:14:46;;;;;;;35.67;18.50;;;2.50;99.90;;;;;;5027143;28;20045;-58
2022/12/03 07:17:12;;;;;;;38.85;20.17;;;2.50;99.90;;;;;;5025867;28;20124;-58
2022/12/03 07:19:37;;;;;;;41.03;20.85;;;2.40;99.90;;;;;;5026399;28;20095;-56
2022/12/03 07:22:03;;;;;;;43.35;19.90;;;2.50;99.90;;;;;;5025943;28;20512;-56
2022/12/03 07:24:28;;;;;;;37.05;19.02;;;2.40;99.90;;;;;;5026791;28;20441;-56
2022/12/03 07:26:54;;;;;;;43.47;20.80;;;2.40;99.90;;;;;;5026667;28;20040;-56
2022/12/03 07:29:20;;;;;;;39.78;18.65;;;2.40;99.90;;;;;;5026704;28;20037;-59
2022/12/03 07:31:45;;;;;;;37.40;19.35;;;2.40;99.90;;;;;;5025633;28;20497;-55
2022/12/03 07:34:11;;;;;;;41.28;20.27;;;2.40;99.90;;;;;;5025273;28;20458;-57
2022/12/03 07:36:37;;;;;;;37.22;19.20;;;2.40;99.90;;;;;;5024346;28;20564;-57
2022/12/03 07:39:02;;;;;;;41.60;19.23;;;2.40;99.90;;;;;;5025756;28;20440;-57
2022/12/03 07:41:28;;;;;;;37.75;19.67;;;2.40;99.90;;;;;;5025388;28;20464;-57
2022/12/03 07:43:53;;;;;;;42.50;18.98;;;2.30;99.90;;;;;;5024327;28;20051;-58
2022/12/03 07:46:19;;;;;;;40.75;19.52;;;2.30;99.90;;;;;;5025227;28;20121;-59
2022/12/03 07:48:45;;;;;;;41.55;20.67;;;2.30;99.90;;;;;;5024546;28;20361;-57
2022/12/03 07:51:10;;;;;;;38.97;19.63;;;2.30;99.90;;;;;;5025440;28;20710;-57
2022/12/03 07:53:36;;;;;;;39.00;19.73;;;2.30;99.90;;;;;;5025500;28;20042;-58
2022/12/03 07:56:03;;;;;;;38.17;19.55;;;2.30;99.90;;;;;;5026462;28;20049;-56
2022/12/03 07:58:29;;;;;;;39.33;20.48;;;2.20;99.90;;;;;;5024923;28;20607;-58
2022/12/03 08:00:55;;;;;;;41.75;20.38;;;2.20;99.90;;;;;;5025033;28;20087;-58
2022/12/03 08:03:21;;;;;;;40.20;20.23;;;2.20;99.90;;;;;;5025220;28;20463;-57
2022/12/03 08:05:46;;;;;;;39.05;19.27;;;2.20;99.90;;;;;;5025805;28;20077;-56
2022/12/03 08:08:12;;;;;;;41.38;20.27;;;2.20;99.90;;;;;;5025021;28;20033;-55
2022/12/03 08:10:38;;;;;;;38.67;20.08;;;2.20;99.90;;;;;;5025202;28;20412;-57
2022/12/03 08:13:09;;;;;;;40.00;20.08;;;2.20;99.90;;;;;;5025901;28;20037;-57
2022/12/03 08:15:35;;;;;;;42.45;19.98;;;2.20;99.90;;;;;;5024780;28;20037;-58
2022/12/03 08:18:06;;;;;;;41.80;20.30;;;2.20;99.90;;;;;;5024837;28;20040;-58
2022/12/03 08:20:37;;;;;;;38.58;20.48;;;2.20;99.90;;;;;;5023574;28;20045;-58
2022/12/03 08:23:10;;;;;;;47.92;22.45;;;2.20;99.90;;;;;;5025344;28;20040;-58
2022/12/03 08:25:36;;;;;;;39.97;20.95;;;2.10;99.90;;;;;;5023013;28;20043;-57
2022/12/03 08:28:06;;;;;;;41.10;20.27;;;2.10;99.90;;;;;;5025300;28;20037;-57
2022/12/03 08:30:32;;;;;;;47.03;21.73;;;2.10;99.90;;;;;;5024848;28;20048;-57
2022/12/03 08:32:58;;;;;;;42.92;20.55;;;2.10;99.90;;;;;;5024966;28;20038;-58
2022/12/03 08:35:27;;;;;;;44.92;20.30;;;2.00;99.90;;;;;;5025119;28;20040;-58
2022/12/03 08:38:10;;;;;;;39.67;19.77;;;2.00;99.90;;;;;;5025270;28;20539;-55
2022/12/03 08:40:40;;;;;;;41.88;20.42;;;2.00;99.90;;;;;;5024543;28;20055;-56
2022/12/03 08:43:15;;;;;;;45.97;21.65;;;2.00;99.90;;;;;;5025387;28;20044;-55
2022/12/03 08:45:41;;;;;;;42.70;21.85;;;2.00;99.90;;;;;;5024917;28;20041;-58
2022/12/03 08:48:31;;;;;;;42.92;21.63;;;1.90;99.90;;;;;;5024114;28;20033;-57
2022/12/03 08:51:24;;;;;;;47.25;21.58;;;1.90;99.90;;;;;;5039602;28;20135;-57
2022/12/03 08:53:58;;;;;;;49.42;22.40;;;1.90;99.90;;;;;;5024331;28;20053;-57
2022/12/03 08:56:26;;;;;;;46.72;21.27;;;1.90;99.90;;;;;;5033917;28;20049;-55
2022/12/03 08:58:59;;;;;;;45.65;21.05;;;1.80;99.90;;;;;;5021968;28;20568;-57
2022/12/03 09:01:29;;;;;;;50.38;22.83;;;1.90;99.90;;;;;;5022781;28;20072;-57
2022/12/03 09:04:04;;;;;;;47.50;22.00;;;1.90;99.90;;;;;;5022181;28;20038;-57
2022/12/03 09:06:29;;;;;;;48.03;21.17;;;1.90;99.90;;;;;;5020732;28;20049;-56
2022/12/03 09:08:55;;;;;;;47.15;22.92;;;1.90;99.90;;;;;;5019843;28;20056;-57
2022/12/03 09:11:20;;;;;;;46.58;22.00;;;1.90;99.90;;;;;;5022921;28;20140;-57
2022/12/03 09:13:46;;;;;;;44.75;21.60;;;1.80;99.90;;;;;;5021945;28;20473;-57
2022/12/03 09:16:11;;;;;;;46.22;23.02;;;1.90;99.90;;;;;;5023687;28;20124;-58
2022/12/03 09:18:37;;;;;;;51.72;23.15;;;1.90;99.90;;;;;;5023136;28;20560;-56
2022/12/03 09:21:03;;;;;;;48.22;21.58;;;1.90;99.90;;;;;;5023692;28;20119;-56
2022/12/03 09:23:28;;;;;;;44.03;21.40;;;1.90;99.90;;;;;;5024724;28;20397;-57
2022/12/03 09:25:54;;;;;;;43.55;21.40;;;1.90;99.90;;;;;;5023580;28;20701;-57
2022/12/03 09:28:19;;;;;;;43.28;21.65;;;1.90;99.90;;;;;;5023229;28;20068;-55
2022/12/03 09:30:45;;;;;;;47.58;21.42;;;1.90;99.90;;;;;;5023328;28;20069;-56
2022/12/03 09:33:10;;;;;;;42.00;21.60;;;1.90;99.90;;;;;;5023390;28;20594;-57
2022/12/03 09:35:36;;;;;;;47.58;23.20;;;1.90;99.90;;;;;;5021820;28;20688;-58
2022/12/03 09:38:01;;;;;;;49.20;22.25;;;1.90;99.90;;;;;;5022246;28;20060;-60
2022/12/03 09:40:28;;;;;;;45.45;22.23;;;1.90;99.90;;;;;;5022675;28;20508;-61
2022/12/03 09:42:57;;;;;;;49.70;23.40;;;1.80;99.90;;;;;;5023519;28;20034;-57
2022/12/03 09:45:23;;;;;;;47.25;21.33;;;1.80;99.90;;;;;;5022473;28;20337;-59
2022/12/03 09:47:49;;;;;;;50.15;24.52;;;1.90;99.90;;;;;;5022148;28;20049;-61
2022/12/03 09:50:25;;;;;;;44.25;20.98;;;1.90;99.90;;;;;;5021942;28;20042;-58
2022/12/03 09:52:53;;;;;;;46.22;21.75;;;1.90;99.90;;;;;;5022127;28;20791;-57
2022/12/03 09:55:25;;;;;;;46.70;22.77;;;1.80;99.90;;;;;;5023572;28;20084;-60
2022/12/03 09:58:14;;;;;;;50.40;22.13;;;1.90;99.90;;;;;;4997044;28;20128;-58
2022/12/03 10:00:42;;;;;;;53.50;23.52;;;1.80;99.90;;;;;;5023319;28;20266;-59
2022/12/03 10:03:11;;;;;;;50.17;22.75;;;1.80;99.90;;;;;;5022803;28;20451;-60
2022/12/03 10:05:37;;;;;;;44.20;22.13;;;1.80;99.60;;;;;;5022301;28;20103;-57
2022/12/03 10:08:09;;;;;;;47.58;22.15;;;1.80;99.30;;;;;;5022368;28;20042;-59
2022/12/03 10:10:36;;;;;;;44.60;22.55;;;1.80;99.20;;;;;;5021263;28;20045;-59
2022/12/03 10:13:02;;;;;;;45.22;20.48;;;1.70;99.10;;;;;;5022864;28;20417;-57
2022/12/03 10:15:28;;;;;;;44.78;21.85;;;1.80;99.50;;;;;;5022563;28;20068;-59
2022/12/03 10:17:54;;;;;;;47.50;21.60;;;1.70;99.60;;;;;;5021960;28;20095;-60
2022/12/03 10:20:22;;;;;;;48.05;22.35;;;1.70;99.70;;;;;;5021633;28;20065;-60
2022/12/03 10:22:48;;;;;;;46.22;20.50;;;1.70;99.50;;;;;;5022510;28;20064;-60
2022/12/03 10:25:17;;;;;;;49.67;21.75;;;1.70;99.20;;;;;;5022561;28;20404;-59
2022/12/03 10:27:58;;;;;;;44.80;21.73;;;1.70;99.10;;;;;;5021265;28;20045;-58
2022/12/03 10:30:27;;;;;;;48.75;22.10;;;1.70;99.10;;;;;;5022703;28;20041;-59
2022/12/03 10:32:53;;;;;;;47.75;23.08;;;1.70;99.60;;;;;;5022348;28;20056;-62
2022/12/03 10:35:22;;;;;;;51.88;21.88;;;1.70;99.00;;;;;;5021800;28;20579;-57
2022/12/03 10:38:05;;;;;;;48.05;22.60;;;1.70;99.10;;;;;;5022794;28;20037;-57
2022/12/03 10:40:34;;;;;;;50.70;22.63;;;1.70;99.20;;;;;;5031402;28;20076;-58
2022/12/03 10:43:18;;;;;;;48.75;23.20;;;1.80;99.20;;;;;;5023359;28;20037;-57
2022/12/03 10:45:45;;;;;;;40.50;21.00;;;1.70;98.60;;;;;;5022208;28;20049;-58
2022/12/03 10:48:26;;;;;;;47.33;22.85;;;1.70;99.00;;;;;;5021678;28;20048;-58
2022/12/03 10:51:10;;;;;;;50.35;22.92;;;1.70;99.20;;;;;;5021590;28;20512;-58
2022/12/03 10:53:38;;;;;;;46.05;21.83;;;1.70;99.50;;;;;;5032733;28;20041;-57
2022/12/03 10:56:06;;;;;;;48.92;24.40;;;1.70;99.60;;;;;;5021932;28;20077;-59
2022/12/03 10:58:37;;;;;;;45.28;21.77;;;1.70;99.60;;;;;;5022245;28;20037;-60
2022/12/03 11:01:17;;;;;;;49.25;22.50;;;1.70;99.60;;;;;;5021659;28;20045;-59
2022/12/03 11:03:44;;;;;;;46.72;23.35;;;1.80;99.40;;;;;;5022228;28;20046;-59
2022/12/03 11:06:20;;;;;;;46.65;22.15;;;1.80;99.40;;;;;;5021583;28;20041;-58
2022/12/03 11:08:49;;;;;;;44.75;21.63;;;1.70;99.30;;;;;;5022865;28;20448;-59
2022/12/03 11:11:22;;;;;;;46.17;22.50;;;1.80;99.00;;;;;;5021583;28;20041;-58
2022/12/03 11:13:53;;;;;;;53.58;23.77;;;1.80;99.40;;;;;;5022715;28;20041;-59
2022/12/03 11:16:38;;;;;;;49.17;23.65;;;1.80;99.00;;;;;;5021959;28;20175;-62
2022/12/03 11:19:12;;;;;;;50.03;22.73;;;1.70;98.30;;;;;;5022953;28;20088;-59
2022/12/03 11:22:17;;;;;;;48.63;23.50;;;1.70;98.70;;;;;;5022317;28;20116;-58
2022/12/03 11:24:42;;;;;;;49.17;23.10;;;1.80;99.50;;;;;;5016963;28;20050;-60
2022/12/03 11:27:08;;;;;;;52.05;24.20;;;1.80;98.60;;;;;;5021836;28;20421;-59
2022/12/03 11:29:49;;;;;;;50.35;23.33;;;1.70;98.60;;;;;;5022435;28;20308;-60
2022/12/03 11:32:53;;;;;;;47.17;22.00;;;1.80;98.50;;;;;;5036042;28;20121;-61
2022/12/03 11:35:24;;;;;;;49.42;22.90;;;1.80;98.20;;;;;;5009396;28;20056;-60
2022/12/03 11:37:50;;;;;;;45.47;22.27;;;1.80;98.80;;;;;;5025496;28;20037;-56
2022/12/03 11:40:15;;;;;;;53.67;24.45;;;1.80;98.90;;;;;;5025095;28;20064;-59
2022/12/03 11:42:41;;;;;;;47.22;23.98;;;1.80;98.70;;;;;;5026809;28;20052;-58
2022/12/03 11:45:28;;;;;;;49.75;22.45;;;1.80;98.90;;;;;;5024117;28;20045;-58
2022/12/03 11:47:56;;;;;;;56.15;23.95;;;1.80;99.30;;;;;;5025071;28;20451;-59
2022/12/03 11:50:28;;;;;;;47.53;22.83;;;1.90;99.30;;;;;;5036912;28;20038;-58
2022/12/03 11:52:59;;;;;;;46.30;21.92;;;1.90;99.00;;;;;;5016116;28;20045;-58
2022/12/03 11:55:31;;;;;;;44.10;22.27;;;1.80;98.70;;;;;;5024708;28;20041;-58
2022/12/03 11:57:59;;;;;;;47.42;23.52;;;1.80;98.10;;;;;;5038860;28;20132;-60
2022/12/03 12:00:25;;;;;;;46.00;20.85;;;1.80;98.00;;;;;;5024602;28;20037;-60
2022/12/03 12:02:53;;;;;;;45.92;21.73;;;1.80;98.20;;;;;;5020570;28;20455;-57
2022/12/03 12:05:45;;;;;;;46.00;22.10;;;1.80;98.20;;;;;;5024118;28;20428;-58
2022/12/03 12:08:18;;;;;;;48.70;22.00;;;1.70;98.60;;;;;;5023603;28;20380;-58
2022/12/03 12:10:52;;;;;;;48.80;22.13;;;1.80;98.20;;;;;;5025912;28;20444;-60
2022/12/03 12:13:25;;;;;;;46.60;21.40;;;1.80;98.20;;;;;;5023347;28;20307;-59
2022/12/03 12:15:51;;;;;;;48.58;21.95;;;1.80;98.70;;;;;;5020822;28;20037;-58
2022/12/03 12:18:39;;;;;;;46.33;22.63;;;1.80;98.10;;;;;;5024383;28;20038;-58
2022/12/03 12:21:40;;;;;;;43.50;20.42;;;1.90;98.80;;;;;;5025166;28;20095;-58
2022/12/03 12:24:28;;;;;;;50.20;20.95;;;1.90;98.40;;;;;;5040393;28;20069;-59
2022/12/03 12:26:54;;;;;;;43.97;21.27;;;1.90;98.10;;;;;;5004959;28;20151;-58
2022/12/03 12:29:20;;;;;;;49.78;22.73;;;1.90;98.40;;;;;;5015674;28;20155;-60
2022/12/03 12:31:49;;;;;;;44.42;21.02;;;1.90;98.70;;;;;;5025137;28;20447;-59
2022/12/03 12:34:15;;;;;;;49.10;21.75;;;1.90;98.50;;;;;;5024804;28;20045;-58
2022/12/03 12:36:40;;;;;;;50.25;21.98;;;1.90;98.30;;;;;;5024389;28;20037;-58
2022/12/03 12:39:14;;;;;;;47.08;22.23;;;1.90;98.80;;;;;;5024302;28;20539;-57
2022/12/03 12:41:47;;;;;;;44.65;21.52;;;2.00;99.00;;;;;;5025887;28;20495;-57
2022/12/03 12:44:13;;;;;;;44.40;20.35;;;2.00;97.60;;;;;;5023636;28;20779;-58
2022/12/03 12:46:45;;;;;;;43.97;21.20;;;2.00;98.40;;;;;;5024634;28;20037;-59
2022/12/03 12:49:12;;;;;;;44.50;21.00;;;2.00;97.90;;;;;;5023235;28;20048;-60
2022/12/03 12:51:48;;;;;;;43.30;20.80;;;2.00;97.80;;;;;;5024554;28;20716;-58
2022/12/03 12:54:16;;;;;;;46.70;23.38;;;2.00;98.10;;;;;;5023865;28;20520;-58
2022/12/03 12:56:43;;;;;;;45.72;22.17;;;2.00;98.60;;;;;;5024968;28;20033;-58
2022/12/03 12:59:18;;;;;;;48.40;21.05;;;2.00;99.00;;;;;;5024029;28;20037;-57
2022/12/03 13:01:45;;;;;;;45.85;20.80;;;2.00;99.20;;;;;;5022417;28;20045;-61
2022/12/03 13:04:17;;;;;;;42.90;21.00;;;2.00;98.50;;;;;;5022315;28;20106;-56
2022/12/03 13:06:43;;;;;;;43.70;21.65;;;1.90;98.40;;;;;;5022496;28;20052;-58
2022/12/03 13:09:22;;;;;;;46.72;23.08;;;1.90;98.80;;;;;;5022614;28;20072;-57